createdAt,value
2023-01-05T00:00:06.546Z,5.20
2023-01-05T00:01:06.464Z,5.20
2023-01-05T00:02:06.467Z,5.90
2023-01-05T00:03:06.385Z,5.50
2023-01-05T00:04:06.441Z,5.90
2023-01-05T00:05:06.340Z,5.50
2023-01-05T00:06:06.332Z,6.00
2023-01-05T00:07:06.288Z,5.30
2023-01-05T00:08:06.266Z,4.60
2023-01-05T00:09:06.243Z,6.50
2023-01-05T00:10:06.220Z,4.90
2023-01-05T00:11:06.245Z,5.00
2023-01-05T00:12:06.188Z,4.40
2023-01-05T00:13:06.153Z,5.50
2023-01-05T00:14:06.122Z,5.50
2023-01-05T00:15:06.102Z,5.50
2023-01-05T00:16:06.125Z,6.10
2023-01-05T00:17:06.054Z,6.10
2023-01-05T00:18:06.042Z,5.50
2023-01-05T00:19:05.996Z,5.80
2023-01-05T00:20:05.983Z,5.80
2023-01-05T00:21:05.947Z,5.70
2023-01-05T00:22:05.942Z,5.90
2023-01-05T00:23:05.896Z,4.50
2023-01-05T00:24:05.879Z,4.80
2023-01-05T00:25:11.572Z,4.80
2023-01-05T00:26:05.828Z,5.30
2023-01-05T00:27:05.814Z,5.60
2023-01-05T00:28:05.791Z,5.50
2023-01-05T00:29:05.763Z,5.60
2023-01-05T00:30:05.731Z,5.60
2023-01-05T00:31:05.700Z,6.00
2023-01-05T00:32:05.746Z,6.00
2023-01-05T00:33:05.661Z,4.60
2023-01-05T00:34:05.631Z,6.10
2023-01-05T00:35:05.617Z,4.60
2023-01-05T00:36:05.573Z,5.00
2023-01-05T00:37:05.548Z,6.20
2023-01-05T00:38:05.531Z,5.30
2023-01-05T00:39:05.509Z,6.20
2023-01-05T00:40:05.485Z,5.20
2023-01-05T00:41:05.450Z,5.30
2023-01-05T00:42:05.443Z,5.40
2023-01-05T00:43:05.512Z,4.90
2023-01-05T00:44:05.384Z,5.80
2023-01-05T00:45:05.355Z,4.80
2023-01-05T00:46:05.385Z,6.40
2023-01-05T00:47:05.302Z,5.70
2023-01-05T00:48:05.289Z,5.40
2023-01-05T00:49:05.253Z,5.00
2023-01-05T00:50:05.238Z,7.40
2023-01-05T00:51:05.217Z,4.90
2023-01-05T00:52:05.183Z,5.60
2023-01-05T00:53:05.166Z,4.90
2023-01-05T00:54:05.140Z,4.90
2023-01-05T00:55:05.138Z,4.60
2023-01-05T00:56:05.091Z,5.70
2023-01-05T00:57:05.057Z,6.10
2023-01-05T00:58:05.038Z,5.00
2023-01-05T00:59:05.035Z,5.40
2023-01-05T01:00:04.995Z,4.70
2023-01-05T01:01:05.094Z,6.60
2023-01-05T01:02:05.114Z,5.50
2023-01-05T01:03:04.987Z,4.90
2023-01-05T01:04:04.894Z,6.00
2023-01-05T01:05:04.871Z,6.00
2023-01-05T01:06:04.858Z,4.90
2023-01-05T01:07:04.816Z,5.70
2023-01-05T01:08:04.786Z,5.10
2023-01-05T01:09:04.761Z,5.30
2023-01-05T01:10:04.745Z,5.20
2023-01-05T01:11:04.739Z,5.70
2023-01-05T01:12:04.693Z,5.60
2023-01-05T01:13:04.668Z,5.80
2023-01-05T01:14:04.648Z,5.50
2023-01-05T01:15:04.644Z,5.50
2023-01-05T01:16:04.589Z,5.40
2023-01-05T01:17:04.643Z,5.60
2023-01-05T01:18:04.547Z,4.90
2023-01-05T01:19:05.711Z,6.00
2023-01-05T01:20:04.498Z,5.00
2023-01-05T01:21:04.466Z,5.90
2023-01-05T01:22:04.445Z,5.00
2023-01-05T01:23:04.425Z,5.60
2023-01-05T01:24:04.401Z,5.40
2023-01-05T01:25:04.376Z,5.80
2023-01-05T01:26:04.347Z,5.30
2023-01-05T01:27:04.322Z,5.30
2023-01-05T01:28:04.291Z,6.00
2023-01-05T01:29:04.274Z,5.10
2023-01-05T01:30:04.243Z,6.20
2023-01-05T01:31:04.295Z,4.90
2023-01-05T01:32:04.194Z,6.10
2023-01-05T01:33:04.175Z,5.60
2023-01-05T01:34:04.149Z,5.40
2023-01-05T01:35:04.128Z,5.20
2023-01-05T01:36:04.094Z,5.80
2023-01-05T01:37:04.074Z,5.20
2023-01-05T01:38:04.051Z,5.60
2023-01-05T01:39:04.021Z,4.70
2023-01-05T01:40:03.996Z,5.40
2023-01-05T01:41:03.981Z,6.10
2023-01-05T01:42:03.969Z,6.10
2023-01-05T01:43:03.931Z,6.50
2023-01-05T01:44:03.903Z,5.80
2023-01-05T01:45:03.898Z,5.00
2023-01-05T01:46:03.890Z,5.60
2023-01-05T01:47:03.852Z,6.70
2023-01-05T01:48:03.800Z,6.10
2023-01-05T01:49:03.777Z,5.60
2023-01-05T01:50:03.751Z,6.60
2023-01-05T01:51:08.205Z,5.80
2023-01-05T01:52:03.702Z,6.60
2023-01-05T01:53:03.676Z,7.40
2023-01-05T01:54:03.655Z,5.70
2023-01-05T01:55:03.633Z,5.10
2023-01-05T01:56:03.608Z,6.20
2023-01-05T01:57:03.587Z,6.70
2023-01-05T01:58:03.566Z,5.40
2023-01-05T01:59:03.535Z,5.60
2023-01-05T02:00:03.507Z,5.90
2023-01-05T02:01:03.682Z,5.70
2023-01-05T02:02:03.574Z,6.00
2023-01-05T02:03:03.462Z,6.30
2023-01-05T02:04:03.531Z,6.40
2023-01-05T02:05:03.396Z,5.60
2023-01-05T02:06:03.358Z,5.00
2023-01-05T02:07:03.349Z,5.10
2023-01-05T02:08:03.321Z,5.60
2023-01-05T02:09:03.292Z,5.60
2023-01-05T02:10:03.278Z,4.70
2023-01-05T02:11:03.238Z,5.20
2023-01-05T02:12:03.218Z,6.10
2023-01-05T02:13:03.184Z,5.20
2023-01-05T02:14:03.157Z,5.50
2023-01-05T02:15:03.145Z,6.20
2023-01-05T02:16:03.110Z,5.00
2023-01-05T02:17:03.149Z,6.40
2023-01-05T02:18:03.066Z,6.30
2023-01-05T02:19:03.131Z,5.60
2023-01-05T02:20:03.007Z,6.10
2023-01-05T02:21:02.987Z,5.10
2023-01-05T02:22:02.963Z,6.30
2023-01-05T02:23:02.953Z,5.70
2023-01-05T02:24:02.909Z,6.40
2023-01-05T02:25:02.889Z,6.80
2023-01-05T02:26:02.864Z,5.60
2023-01-05T02:27:02.841Z,5.60
2023-01-05T02:28:02.811Z,6.20
2023-01-05T02:29:02.829Z,5.50
2023-01-05T02:30:02.770Z,5.80
2023-01-05T02:31:02.933Z,6.30
2023-01-05T02:32:02.771Z,5.50
2023-01-05T02:33:02.702Z,5.60
2023-01-05T02:34:02.665Z,5.30
2023-01-05T02:35:02.675Z,5.20
2023-01-05T02:36:02.616Z,5.60
2023-01-05T02:37:02.590Z,6.50
2023-01-05T02:38:02.560Z,5.90
2023-01-05T02:39:02.548Z,4.70
2023-01-05T02:40:02.514Z,5.60
2023-01-05T02:41:02.491Z,6.20
2023-01-05T02:42:02.468Z,5.40
2023-01-05T02:43:02.442Z,5.40
2023-01-05T02:44:02.419Z,5.40
2023-01-05T02:45:02.396Z,5.00
2023-01-05T02:46:02.509Z,5.40
2023-01-05T02:47:02.348Z,4.70
2023-01-05T02:48:02.325Z,4.90
2023-01-05T02:49:02.292Z,4.60
2023-01-05T02:50:02.266Z,4.90
2023-01-05T02:51:02.263Z,6.00
2023-01-05T02:52:02.216Z,5.20
2023-01-05T02:53:02.210Z,5.60
2023-01-05T02:54:02.170Z,6.20
2023-01-05T02:55:02.150Z,5.50
2023-01-05T02:56:02.120Z,6.10
2023-01-05T02:57:02.100Z,5.90
2023-01-05T02:58:02.068Z,5.80
2023-01-05T02:59:02.047Z,6.00
2023-01-05T03:00:02.058Z,6.80
2023-01-05T03:01:02.156Z,6.60
2023-01-05T03:02:02.146Z,5.40
2023-01-05T03:03:02.168Z,6.40
2023-01-05T03:04:01.918Z,5.80
2023-01-05T03:05:01.897Z,5.80
2023-01-05T03:06:01.872Z,6.10
2023-01-05T03:07:01.861Z,6.30
2023-01-05T03:08:01.837Z,5.50
2023-01-05T03:09:01.817Z,4.90
2023-01-05T03:10:01.777Z,6.60
2023-01-05T03:11:01.744Z,5.20
2023-01-05T03:12:01.739Z,5.90
2023-01-05T03:13:01.696Z,6.60
2023-01-05T03:14:01.674Z,5.60
2023-01-05T03:15:01.651Z,6.20
2023-01-05T03:16:01.673Z,6.10
2023-01-05T03:17:01.599Z,6.50
2023-01-05T03:18:01.575Z,5.40
2023-01-05T03:19:01.551Z,5.70
2023-01-05T03:20:01.522Z,5.90
2023-01-05T03:21:01.499Z,5.60
2023-01-05T03:22:01.476Z,4.90
2023-01-05T03:23:01.470Z,5.70
2023-01-05T03:24:01.418Z,5.70
2023-01-05T03:25:01.430Z,5.60
2023-01-05T03:26:01.372Z,6.30
2023-01-05T03:27:01.363Z,5.80
2023-01-05T03:28:01.357Z,5.20
2023-01-05T03:29:01.312Z,6.40
2023-01-05T03:30:01.284Z,5.70
2023-01-05T03:31:01.354Z,5.00
2023-01-05T03:32:01.232Z,6.00
2023-01-05T03:33:01.200Z,5.60
2023-01-05T03:34:01.187Z,6.10
2023-01-05T03:35:01.163Z,5.50
2023-01-05T03:36:01.133Z,6.00
2023-01-05T03:37:01.114Z,5.80
2023-01-05T03:38:01.088Z,6.00
2023-01-05T03:39:01.081Z,7.60
2023-01-05T03:40:01.027Z,5.40
2023-01-05T03:41:01.011Z,6.90
2023-01-05T03:42:00.978Z,5.30
2023-01-05T03:43:00.960Z,4.90
2023-01-05T03:44:00.948Z,6.20
2023-01-05T03:45:00.903Z,5.80
2023-01-05T03:46:00.903Z,6.10
2023-01-05T03:47:00.896Z,6.10
2023-01-05T03:48:00.831Z,6.70
2023-01-05T03:49:00.809Z,5.00
2023-01-05T03:50:00.783Z,6.30
2023-01-05T03:51:00.769Z,6.00
2023-01-05T03:52:00.726Z,6.00
2023-01-05T03:53:00.709Z,5.80
2023-01-05T03:54:00.679Z,6.90
2023-01-05T03:55:00.693Z,5.80
2023-01-05T03:56:00.627Z,5.50
2023-01-05T03:57:00.603Z,7.00
2023-01-05T03:58:00.579Z,6.40
2023-01-05T03:59:00.563Z,6.20
2023-01-05T04:00:00.539Z,5.40
2023-01-05T04:01:00.512Z,5.50
2023-01-05T04:02:00.627Z,6.20
2023-01-05T04:03:00.592Z,6.40
2023-01-05T04:04:00.499Z,6.50
2023-01-05T04:05:00.406Z,5.80
2023-01-05T04:06:00.407Z,7.00
2023-01-05T04:07:00.364Z,5.80
2023-01-05T04:08:00.334Z,6.00
2023-01-05T04:09:00.312Z,6.00
2023-01-05T04:10:00.282Z,5.50
2023-01-05T04:11:00.292Z,5.30
2023-01-05T04:12:00.237Z,5.90
2023-01-05T04:13:00.216Z,6.00
2023-01-05T04:14:00.189Z,5.70
2023-01-05T04:15:00.164Z,7.00
2023-01-05T04:16:00.226Z,6.20
2023-01-05T04:17:00.111Z,6.60
2023-01-05T04:18:00.114Z,6.00
2023-01-05T04:19:00.108Z,5.80
2023-01-05T04:20:00.033Z,6.50
2023-01-05T04:21:00.026Z,6.00
2023-01-05T04:21:59.985Z,5.70
2023-01-05T04:22:59.983Z,6.60
2023-01-05T04:23:59.939Z,6.70
2023-01-05T04:24:59.910Z,6.80
2023-01-05T04:25:59.907Z,6.50
2023-01-05T04:26:59.880Z,6.40
2023-01-05T04:27:59.837Z,6.20
2023-01-05T04:28:59.824Z,6.40
2023-01-05T04:29:59.789Z,6.90
2023-01-05T04:30:59.797Z,6.40
2023-01-05T04:31:59.739Z,7.00
2023-01-05T04:32:59.718Z,6.30
2023-01-05T04:33:59.691Z,6.20
2023-01-05T04:35:03.855Z,6.50
2023-01-05T04:35:59.632Z,6.70
2023-01-05T04:36:59.608Z,6.70
2023-01-05T04:37:59.580Z,6.40
2023-01-05T04:38:59.559Z,6.50
2023-01-05T04:39:59.529Z,7.90
2023-01-05T04:40:59.537Z,7.00
2023-01-05T04:41:59.481Z,6.50
2023-01-05T04:42:59.480Z,7.20
2023-01-05T04:43:59.439Z,6.80
2023-01-05T04:44:59.411Z,7.20
2023-01-05T04:45:59.425Z,8.40
2023-01-05T04:46:59.359Z,7.00
2023-01-05T04:47:59.335Z,7.40
2023-01-05T04:48:59.358Z,7.80
2023-01-05T04:49:59.283Z,7.30
2023-01-05T04:50:59.266Z,6.60
2023-01-05T04:51:59.238Z,7.20
2023-01-05T04:52:59.213Z,6.20
2023-01-05T04:53:59.189Z,7.10
2023-01-05T04:54:59.164Z,7.60
2023-01-05T04:55:59.136Z,7.30
2023-01-05T04:56:59.112Z,7.20
2023-01-05T04:57:59.083Z,6.60
2023-01-05T04:58:59.085Z,6.90
2023-01-05T04:59:59.042Z,7.10
2023-01-05T05:00:59.012Z,7.40
2023-01-05T05:01:59.131Z,7.80
2023-01-05T05:02:59.085Z,7.80
2023-01-05T05:03:59.039Z,7.60
2023-01-05T05:04:58.925Z,7.00
2023-01-05T05:05:58.886Z,8.50
2023-01-05T05:06:58.868Z,7.10
2023-01-05T05:07:58.846Z,8.00
2023-01-05T05:08:58.812Z,7.30
2023-01-05T05:09:58.792Z,7.50
2023-01-05T05:10:58.766Z,7.00
2023-01-05T05:11:58.734Z,7.20
2023-01-05T05:12:58.716Z,7.00
2023-01-05T05:13:58.684Z,8.70
2023-01-05T05:14:58.683Z,7.30
2023-01-05T05:15:58.704Z,7.90
2023-01-05T05:16:58.612Z,7.20
2023-01-05T05:17:59.074Z,6.90
2023-01-05T05:18:58.562Z,7.20
2023-01-05T05:19:58.533Z,7.00
2023-01-05T05:20:58.523Z,7.40
2023-01-05T05:21:58.491Z,6.80
2023-01-05T05:22:58.461Z,7.70
2023-01-05T05:23:58.436Z,7.30
2023-01-05T05:24:58.429Z,6.40
2023-01-05T05:25:58.391Z,7.20
2023-01-05T05:26:58.359Z,7.50
2023-01-05T05:27:58.332Z,7.80
2023-01-05T05:28:58.336Z,6.80
2023-01-05T05:29:58.286Z,7.10
2023-01-05T05:30:58.432Z,6.90
2023-01-05T05:31:58.246Z,6.30
2023-01-05T05:32:58.212Z,8.30
2023-01-05T05:33:58.185Z,6.50
2023-01-05T05:34:58.158Z,7.20
2023-01-05T05:35:58.142Z,7.50
2023-01-05T05:36:58.110Z,6.80
2023-01-05T05:37:58.085Z,7.90
2023-01-05T05:38:58.058Z,6.80
2023-01-05T05:39:58.038Z,7.30
2023-01-05T05:40:58.013Z,6.60
2023-01-05T05:41:57.986Z,6.90
2023-01-05T05:42:57.960Z,8.40
2023-01-05T05:43:57.936Z,7.30
2023-01-05T05:44:57.910Z,7.40
2023-01-05T05:45:57.893Z,8.40
2023-01-05T05:46:57.924Z,8.30
2023-01-05T05:47:57.840Z,7.90
2023-01-05T05:48:57.814Z,9.20
2023-01-05T05:49:57.788Z,7.50
2023-01-05T05:50:57.760Z,7.30
2023-01-05T05:51:57.742Z,7.00
2023-01-05T05:52:57.711Z,6.30
2023-01-05T05:53:57.689Z,6.60
2023-01-05T05:54:57.658Z,6.70
2023-01-05T05:55:57.654Z,6.00
2023-01-05T05:56:57.613Z,7.30
2023-01-05T05:57:57.592Z,6.70
2023-01-05T05:59:01.537Z,6.30
2023-01-05T05:59:57.538Z,6.70
2023-01-05T06:00:57.521Z,6.60
2023-01-05T06:01:57.622Z,9.30
2023-01-05T06:02:57.646Z,26.20
2023-01-05T06:03:57.463Z,21.50
2023-01-05T06:04:57.409Z,32.70
2023-01-05T06:05:57.391Z,21.50
2023-01-05T06:06:57.362Z,18.20
2023-01-05T06:07:57.347Z,10.40
2023-01-05T06:08:57.313Z,12.20
2023-01-05T06:09:57.288Z,8.80
2023-01-05T06:10:57.256Z,10.20
2023-01-05T06:11:57.240Z,8.00
2023-01-05T06:12:57.206Z,9.90
2023-01-05T06:13:57.189Z,10.80
2023-01-05T06:14:57.156Z,9.30
2023-01-05T06:15:57.163Z,9.20
2023-01-05T06:16:57.104Z,9.00
2023-01-05T06:17:57.088Z,10.40
2023-01-05T06:18:57.079Z,8.60
2023-01-05T06:19:57.039Z,8.30
2023-01-05T06:21:01.528Z,7.80
2023-01-05T06:21:56.995Z,7.80
2023-01-05T06:22:56.959Z,8.00
2023-01-05T06:23:56.935Z,7.80
2023-01-05T06:24:56.905Z,6.90
2023-01-05T06:25:56.886Z,8.20
2023-01-05T06:26:56.858Z,7.60
2023-01-05T06:27:56.842Z,8.50
2023-01-05T06:28:56.813Z,8.90
2023-01-05T06:29:56.783Z,9.00
2023-01-05T06:30:56.777Z,9.60
2023-01-05T06:31:56.796Z,6.80
2023-01-05T06:32:56.703Z,7.20
2023-01-05T06:33:56.686Z,9.20
2023-01-05T06:34:56.677Z,8.40
2023-01-05T06:35:56.636Z,8.60
2023-01-05T06:37:01.896Z,7.00
2023-01-05T06:37:56.585Z,8.80
2023-01-05T06:38:56.561Z,10.40
2023-01-05T06:39:56.535Z,12.30
2023-01-05T06:40:56.504Z,12.70
2023-01-05T06:41:56.491Z,12.20
2023-01-05T06:42:56.455Z,9.50
2023-01-05T06:43:56.440Z,10.00
2023-01-05T06:44:56.410Z,10.20
2023-01-05T06:45:56.562Z,7.60
2023-01-05T06:46:56.356Z,6.70
2023-01-05T06:47:56.338Z,6.50
2023-01-05T06:48:56.308Z,10.20
2023-01-05T06:49:56.290Z,8.40
2023-01-05T06:50:56.288Z,6.80
2023-01-05T06:51:56.254Z,7.00
2023-01-05T06:52:56.207Z,6.20
2023-01-05T06:53:56.186Z,6.20
2023-01-05T06:54:56.163Z,6.20
2023-01-05T06:55:56.144Z,6.80
2023-01-05T06:56:56.111Z,6.10
2023-01-05T06:58:00.801Z,6.70
2023-01-05T06:58:56.074Z,7.10
2023-01-05T06:59:56.066Z,7.00
2023-01-05T07:00:56.077Z,6.80
2023-01-05T07:01:56.087Z,7.80
2023-01-05T07:02:55.959Z,6.60
2023-01-05T07:03:56.017Z,7.10
2023-01-05T07:04:55.909Z,6.50
2023-01-05T07:05:55.897Z,6.50
2023-01-05T07:06:55.877Z,6.70
2023-01-05T07:07:55.834Z,7.30
2023-01-05T07:08:55.811Z,6.80
2023-01-05T07:09:55.788Z,6.20
2023-01-05T07:10:55.787Z,5.80
2023-01-05T07:11:55.737Z,5.90
2023-01-05T07:12:55.702Z,6.00
2023-01-05T07:13:55.683Z,7.10
2023-01-05T07:14:57.676Z,7.10
2023-01-05T07:15:55.695Z,7.20
2023-01-05T07:16:55.606Z,5.90
2023-01-05T07:17:55.591Z,6.60
2023-01-05T07:18:55.569Z,6.50
2023-01-05T07:19:55.545Z,7.60
2023-01-05T07:20:55.513Z,6.70
2023-01-05T07:21:57.084Z,6.10
2023-01-05T07:22:55.477Z,6.90
2023-01-05T07:23:55.437Z,6.30
2023-01-05T07:24:55.411Z,7.10
2023-01-05T07:25:55.389Z,5.70
2023-01-05T07:26:55.360Z,6.60
2023-01-05T07:27:55.341Z,6.50
2023-01-05T07:28:55.305Z,7.40
2023-01-05T07:29:55.295Z,6.50
2023-01-05T07:30:55.254Z,6.10
2023-01-05T07:31:55.277Z,7.10
2023-01-05T07:32:55.206Z,9.00
2023-01-05T07:33:55.183Z,9.30
2023-01-05T07:34:56.088Z,6.90
2023-01-05T07:35:55.133Z,6.70
2023-01-05T07:36:55.104Z,6.90
2023-01-05T07:37:55.083Z,7.70
2023-01-05T07:38:57.655Z,6.70
2023-01-05T07:39:55.032Z,8.70
2023-01-05T07:40:54.999Z,8.50
2023-01-05T07:41:55.005Z,7.40
2023-01-05T07:42:54.965Z,7.30
2023-01-05T07:43:54.939Z,8.60
2023-01-05T07:44:54.910Z,7.60
2023-01-05T07:45:54.996Z,7.10
2023-01-05T07:46:54.863Z,8.20
2023-01-05T07:47:54.849Z,7.60
2023-01-05T07:48:54.807Z,7.50
2023-01-05T07:49:54.787Z,7.30
2023-01-05T07:50:54.752Z,5.90
2023-01-05T07:51:54.733Z,7.60
2023-01-05T07:52:54.707Z,7.10
2023-01-05T07:53:54.680Z,7.80
2023-01-05T07:54:54.688Z,7.00
2023-01-05T07:55:54.631Z,6.90
2023-01-05T07:56:54.604Z,5.70
2023-01-05T07:57:54.590Z,7.80
2023-01-05T07:58:54.553Z,7.70
2023-01-05T07:59:54.532Z,7.20
2023-01-05T08:00:54.578Z,7.10
2023-01-05T08:01:54.612Z,6.90
2023-01-05T08:02:54.457Z,7.40
2023-01-05T08:03:54.501Z,7.10
2023-01-05T08:04:54.410Z,7.30
2023-01-05T08:05:54.388Z,7.50
2023-01-05T08:06:54.370Z,7.10
2023-01-05T08:07:54.346Z,8.20
2023-01-05T08:08:54.304Z,7.30
2023-01-05T08:09:54.279Z,7.70
2023-01-05T08:10:54.306Z,6.70
2023-01-05T08:11:54.241Z,8.30
2023-01-05T08:12:54.209Z,7.10
2023-01-05T08:13:54.184Z,8.50
2023-01-05T08:14:54.156Z,6.90
2023-01-05T08:15:54.141Z,6.80
2023-01-05T08:16:54.168Z,8.00
2023-01-05T08:17:54.079Z,7.50
2023-01-05T08:18:54.058Z,7.80
2023-01-05T08:19:54.049Z,7.20
2023-01-05T08:20:54.004Z,7.70
2023-01-05T08:21:53.997Z,8.20
2023-01-05T08:22:53.995Z,15.70
2023-01-05T08:23:53.929Z,17.10
2023-01-05T08:24:53.907Z,11.40
2023-01-05T08:25:53.881Z,6.80
2023-01-05T08:26:53.909Z,8.00
2023-01-05T08:27:53.831Z,6.80
2023-01-05T08:28:53.806Z,8.60
2023-01-05T08:29:53.782Z,14.60
2023-01-05T08:30:53.751Z,22.20
2023-01-05T08:31:53.919Z,18.10
2023-01-05T08:32:53.709Z,14.60
2023-01-05T08:33:53.736Z,13.20
2023-01-05T08:34:55.751Z,13.00
2023-01-05T08:35:53.637Z,9.90
2023-01-05T08:36:53.607Z,17.80
2023-01-05T08:37:53.584Z,22.10
2023-01-05T08:38:53.556Z,16.10
2023-01-05T08:39:53.536Z,13.50
2023-01-05T08:40:53.507Z,9.00
2023-01-05T08:41:58.854Z,8.70
2023-01-05T08:42:53.499Z,6.80
2023-01-05T08:43:53.435Z,8.90
2023-01-05T08:44:53.402Z,8.20
2023-01-05T08:45:53.443Z,7.10
2023-01-05T08:46:53.356Z,9.40
2023-01-05T08:47:53.337Z,11.00
2023-01-05T08:48:53.304Z,7.60
2023-01-05T08:49:53.280Z,8.00
2023-01-05T08:50:53.256Z,7.60
2023-01-05T08:51:53.239Z,8.60
2023-01-05T08:52:53.213Z,7.20
2023-01-05T08:53:53.240Z,8.30
2023-01-05T08:54:53.154Z,9.40
2023-01-05T08:55:53.136Z,10.60
2023-01-05T08:56:53.107Z,10.20
2023-01-05T08:57:53.108Z,7.50
2023-01-05T08:58:53.079Z,7.50
2023-01-05T08:59:53.040Z,7.10
2023-01-05T09:00:53.040Z,6.80
2023-01-05T09:01:53.251Z,10.40
2023-01-05T09:02:53.110Z,8.10
2023-01-05T09:03:52.949Z,9.50
2023-01-05T09:04:52.913Z,9.20
2023-01-05T09:05:52.889Z,8.90
2023-01-05T09:06:52.871Z,7.80
2023-01-05T09:07:52.840Z,8.90
2023-01-05T09:08:52.819Z,8.50
2023-01-05T09:09:52.790Z,9.20
2023-01-05T09:10:52.760Z,7.30
2023-01-05T09:11:52.738Z,6.90
2023-01-05T09:12:52.709Z,6.90
2023-01-05T09:13:52.695Z,7.30
2023-01-05T09:14:52.690Z,8.10
2023-01-05T09:15:52.640Z,7.70
2023-01-05T09:17:08.794Z,7.30
2023-01-05T09:17:52.691Z,6.80
2023-01-05T09:18:52.561Z,7.10
2023-01-05T09:19:52.540Z,8.80
2023-01-05T09:20:52.514Z,7.90
2023-01-05T09:21:52.494Z,6.60
2023-01-05T09:22:52.460Z,8.20
2023-01-05T09:23:52.444Z,7.10
2023-01-05T09:24:52.426Z,6.90
2023-01-05T09:25:52.410Z,7.10
2023-01-05T09:26:52.374Z,8.20
2023-01-05T09:27:52.338Z,7.30
2023-01-05T09:28:52.310Z,7.20
2023-01-05T09:29:52.286Z,7.20
2023-01-05T09:30:52.316Z,7.30
2023-01-05T09:31:52.238Z,7.80
2023-01-05T09:32:52.222Z,8.50
2023-01-05T09:33:52.192Z,8.20
2023-01-05T09:34:52.173Z,8.90
2023-01-05T09:35:52.139Z,43.90
2023-01-05T09:36:52.128Z,13.10
2023-01-05T09:37:52.101Z,12.20
2023-01-05T09:38:52.064Z,9.00
2023-01-05T09:39:52.042Z,9.60
2023-01-05T09:40:52.012Z,10.60
2023-01-05T09:41:51.993Z,8.00
2023-01-05T09:42:51.963Z,7.70
2023-01-05T09:43:51.943Z,7.30
2023-01-05T09:44:58.467Z,7.30
2023-01-05T09:45:52.009Z,7.50
2023-01-05T09:46:52.038Z,8.00
2023-01-05T09:47:51.848Z,7.70
2023-01-05T09:48:51.831Z,6.50
2023-01-05T09:49:51.808Z,7.40
2023-01-05T09:50:51.794Z,7.40
2023-01-05T09:51:51.750Z,7.10
2023-01-05T09:52:51.721Z,7.00
2023-01-05T09:53:51.693Z,7.10
2023-01-05T09:54:51.681Z,7.40
2023-01-05T09:55:51.649Z,8.20
2023-01-05T09:57:51.597Z,8.10
2023-01-05T09:58:51.576Z,7.70
2023-01-05T09:59:51.543Z,7.50
2023-01-05T10:00:51.525Z,7.10
2023-01-05T10:01:51.567Z,8.00
2023-01-05T10:02:51.597Z,7.40
2023-01-05T10:04:03.630Z,6.90
2023-01-05T10:04:51.485Z,7.50
2023-01-05T10:05:51.438Z,7.40
2023-01-05T10:06:51.370Z,10.60
2023-01-05T10:07:51.345Z,10.00
2023-01-05T10:08:51.323Z,7.00
2023-01-05T10:09:51.300Z,7.30
2023-01-05T10:10:51.281Z,7.70
2023-01-05T10:11:51.250Z,8.80
2023-01-05T10:12:51.223Z,7.50
2023-01-05T10:13:51.201Z,8.30
2023-01-05T10:14:51.189Z,8.20
2023-01-05T10:15:51.187Z,6.60
2023-01-05T10:16:57.804Z,6.70
2023-01-05T10:17:51.106Z,6.80
2023-01-05T10:18:51.191Z,7.40
2023-01-05T10:19:51.043Z,7.50
2023-01-05T10:20:51.027Z,7.40
2023-01-05T10:21:50.998Z,8.40
2023-01-05T10:22:50.981Z,7.70
2023-01-05T10:23:50.952Z,6.80
2023-01-05T10:24:50.930Z,6.40
2023-01-05T10:25:50.897Z,7.30
2023-01-05T10:27:23.653Z,7.60
2023-01-05T10:27:56.476Z,6.70
2023-01-05T10:28:50.834Z,7.60
2023-01-05T10:29:50.800Z,7.90
2023-01-05T10:30:50.896Z,7.30
2023-01-05T10:31:50.750Z,6.80
2023-01-05T10:32:51.005Z,7.10
2023-01-05T10:33:53.778Z,6.60
2023-01-05T10:34:50.817Z,7.80
2023-01-05T10:36:00.631Z,7.20
2023-01-05T10:37:07.806Z,7.40
2023-01-05T10:37:50.604Z,7.40
2023-01-05T10:38:50.583Z,8.10
2023-01-05T10:39:56.018Z,7.60
2023-01-05T10:40:50.533Z,8.10
2023-01-05T10:41:50.505Z,8.20
2023-01-05T10:42:50.483Z,7.80
2023-01-05T10:43:50.459Z,7.60
2023-01-05T10:44:50.434Z,7.40
2023-01-05T10:46:20.387Z,8.50
2023-01-05T10:46:52.760Z,8.00
2023-01-05T10:47:50.591Z,9.80
2023-01-05T10:48:50.335Z,7.90
2023-01-05T10:49:50.306Z,7.60
2023-01-05T10:50:50.411Z,8.20
2023-01-05T10:51:56.318Z,9.30
2023-01-05T10:52:50.246Z,11.10
2023-01-05T10:53:50.218Z,9.10
2023-01-05T10:54:50.214Z,7.60
2023-01-05T10:55:50.156Z,8.10
2023-01-05T10:56:50.139Z,8.70
2023-01-05T10:57:50.122Z,11.90
2023-01-05T10:58:50.096Z,8.70
2023-01-05T10:59:50.083Z,6.90
2023-01-05T11:00:50.054Z,7.10
2023-01-05T11:01:50.188Z,7.70
2023-01-05T11:02:50.111Z,10.90
2023-01-05T11:04:49.984Z,9.20
2023-01-05T11:05:49.911Z,8.60
2023-01-05T11:06:50.009Z,11.00
2023-01-05T11:07:49.871Z,8.70
2023-01-05T11:08:49.844Z,8.20
2023-01-05T11:09:49.825Z,10.60
2023-01-05T11:10:49.792Z,9.80
2023-01-05T11:11:49.770Z,9.50
2023-01-05T11:12:49.744Z,8.10
2023-01-05T11:13:49.720Z,9.40
2023-01-05T11:14:53.322Z,8.80
2023-01-05T11:15:49.701Z,9.10
2023-01-05T11:16:49.651Z,10.00
2023-01-05T11:17:49.626Z,10.10
2023-01-05T11:18:49.596Z,9.20
2023-01-05T11:19:49.567Z,8.60
2023-01-05T11:20:49.564Z,7.90
2023-01-05T11:21:49.517Z,10.30
2023-01-05T11:22:49.611Z,11.60
2023-01-05T11:23:49.474Z,10.60
2023-01-05T11:24:49.445Z,10.40
2023-01-05T11:25:49.420Z,10.90
2023-01-05T11:26:49.396Z,8.40
2023-01-05T11:27:57.161Z,8.90
2023-01-05T11:28:49.353Z,7.90
2023-01-05T11:29:49.325Z,8.80
2023-01-05T11:30:49.395Z,8.90
2023-01-05T11:31:49.272Z,8.10
2023-01-05T11:32:49.246Z,8.20
2023-01-05T11:33:49.220Z,8.20
2023-01-05T11:34:49.208Z,8.20
2023-01-05T11:35:49.171Z,8.80
2023-01-05T11:36:49.151Z,7.70
2023-01-05T11:37:49.134Z,7.60
2023-01-05T11:38:49.222Z,7.90
2023-01-05T11:39:49.071Z,8.20
2023-01-05T11:40:49.059Z,7.50
2023-01-05T11:41:49.023Z,8.30
2023-01-05T11:42:49.008Z,7.80
2023-01-05T11:43:48.990Z,15.00
2023-01-05T11:44:48.950Z,10.50
2023-01-05T11:45:48.928Z,8.70
2023-01-05T11:46:48.961Z,6.60
2023-01-05T11:47:48.872Z,8.30
2023-01-05T11:48:48.857Z,11.50
2023-01-05T11:49:51.444Z,10.20
2023-01-05T11:50:48.801Z,7.90
2023-01-05T11:51:48.775Z,8.40
2023-01-05T11:52:48.758Z,8.00
2023-01-05T11:53:48.724Z,8.00
2023-01-05T11:54:48.822Z,7.50
2023-01-05T11:55:48.679Z,7.40
2023-01-05T11:56:48.655Z,8.80
2023-01-05T11:57:50.579Z,7.70
2023-01-05T11:58:48.605Z,7.60
2023-01-05T11:59:48.581Z,7.50
2023-01-05T12:00:48.607Z,9.30
2023-01-05T12:01:48.599Z,7.90
2023-01-05T12:02:48.566Z,8.40
2023-01-05T12:03:48.978Z,10.20
2023-01-05T12:04:48.460Z,7.30
2023-01-05T12:05:48.438Z,7.70
2023-01-05T12:06:48.410Z,7.80
2023-01-05T12:07:48.381Z,9.90
2023-01-05T12:08:48.406Z,7.70
2023-01-05T12:09:48.332Z,10.40
2023-01-05T12:10:48.434Z,8.40
2023-01-05T12:11:48.288Z,7.10
2023-01-05T12:12:48.274Z,7.60
2023-01-05T12:13:48.234Z,8.50
2023-01-05T12:14:48.226Z,9.70
2023-01-05T12:15:48.215Z,7.80
2023-01-05T12:16:48.238Z,6.50
2023-01-05T12:17:48.136Z,6.60
2023-01-05T12:18:48.116Z,7.30
2023-01-05T12:19:48.087Z,7.70
2023-01-05T12:20:48.065Z,7.00
2023-01-05T12:21:48.037Z,8.10
2023-01-05T12:22:48.027Z,7.80
2023-01-05T12:23:47.994Z,6.80
2023-01-05T12:24:47.967Z,8.00
2023-01-05T12:25:47.944Z,8.10
2023-01-05T12:26:48.036Z,5.90
2023-01-05T12:27:47.889Z,6.70
2023-01-05T12:28:56.617Z,7.80
2023-01-05T12:31:13.105Z,7.60
2023-01-05T12:34:07.272Z,11.00
2023-01-05T12:34:47.722Z,12.30
2023-01-05T12:35:47.700Z,14.90
2023-01-05T12:36:47.671Z,7.20
2023-01-05T12:37:47.648Z,7.40
2023-01-05T12:38:47.630Z,10.20
2023-01-05T12:39:47.596Z,8.40
2023-01-05T12:40:47.575Z,6.90
2023-01-05T12:41:47.548Z,9.60
2023-01-05T12:42:47.643Z,12.10
2023-01-05T12:43:47.499Z,13.70
2023-01-05T12:44:47.474Z,12.10
2023-01-05T12:45:47.458Z,9.00
2023-01-05T12:46:47.488Z,9.50
2023-01-05T12:47:47.402Z,11.40
2023-01-05T12:48:47.378Z,10.10
2023-01-05T12:49:47.360Z,8.80
2023-01-05T12:50:47.331Z,8.00
2023-01-05T12:51:47.321Z,7.30
2023-01-05T12:52:47.294Z,7.40
2023-01-05T12:53:47.259Z,7.50
2023-01-05T12:54:47.242Z,8.30
2023-01-05T12:55:47.200Z,10.10
2023-01-05T12:56:47.188Z,9.50
2023-01-05T12:57:47.155Z,8.30
2023-01-05T12:58:52.220Z,7.70
2023-01-05T12:59:47.110Z,5.90
2023-01-05T13:00:47.144Z,7.00
2023-01-05T13:01:47.263Z,6.70
2023-01-05T13:02:47.053Z,5.90
2023-01-05T13:03:47.009Z,8.40
2023-01-05T13:04:50.375Z,8.20
2023-01-05T13:05:46.961Z,7.40
2023-01-05T13:06:46.941Z,6.40
2023-01-05T13:07:46.910Z,6.70
2023-01-05T13:08:46.895Z,7.40
2023-01-05T13:09:46.860Z,8.10
2023-01-05T13:10:46.841Z,7.30
2023-01-05T13:11:46.814Z,7.60
2023-01-05T13:12:46.799Z,6.70
2023-01-05T13:13:46.774Z,6.20
2023-01-05T13:14:46.853Z,6.70
2023-01-05T13:15:46.778Z,6.60
2023-01-05T13:16:46.692Z,7.00
2023-01-05T13:17:46.668Z,5.40
2023-01-05T13:18:46.651Z,6.90
2023-01-05T13:19:46.625Z,7.20
2023-01-05T13:20:46.593Z,6.00